sensor_id;sensor_type;location;lat;lon;timestamp;pressure;altitude;pressure_sealevel;temperature;humidity
36726;BME280;44936;52.086;5.150;2023-03-13T00:03:38;100627.25;;;8.17;100.00
36726;BME280;44936;52.086;5.150;2023-03-13T00:06:04;100622.91;;;8.20;100.00
36726;BME280;44936;52.086;5.150;2023-03-13T00:08:29;100601.13;;;8.20;100.00
36726;BME280;44936;52.086;5.150;2023-03-13T00:10:55;100618.63;;;8.27;100.00
36726;BME280;44936;52.086;5.150;2023-03-13T00:13:21;100617.69;;;8.20;100.00
36726;BME280;44936;52.086;5.150;2023-03-13T00:15:46;100606.38;;;8.21;100.00
36726;BME280;44936;52.086;5.150;2023-03-13T00:18:12;100604.63;;;8.20;100.00
36726;BME280;44936;52.086;5.150;2023-03-13T00:20:37;100589.88;;;8.27;100.00
36726;BME280;44936;52.086;5.150;2023-03-13T00:23:03;100582.84;;;8.21;100.00
36726;BME280;44936;52.086;5.150;2023-03-13T00:25:28;100575.94;;;8.28;100.00
36726;BME280;44936;52.086;5.150;2023-03-13T00:27:53;100567.22;;;8.28;100.00
36726;BME280;44936;52.086;5.150;2023-03-13T00:30:19;100544.59;;;8.30;100.00
36726;BME280;44936;52.086;5.150;2023-03-13T00:32:45;100535.81;;;8.21;100.00
36726;BME280;44936;52.086;5.150;2023-03-13T00:35:12;100515.91;;;8.31;100.00
36726;BME280;44936;52.086;5.150;2023-03-13T00:37:37;100504.53;;;8.28;100.00
36726;BME280;44936;52.086;5.150;2023-03-13T00:40:04;100461.78;;;8.18;100.00
36726;BME280;44936;52.086;5.150;2023-03-13T00:42:30;100474.91;;;8.26;100.00
36726;BME280;44936;52.086;5.150;2023-03-13T00:44:56;100489.78;;;8.34;100.00
36726;BME280;44936;52.086;5.150;2023-03-13T00:47:21;100485.44;;;8.35;100.00
36726;BME280;44936;52.086;5.150;2023-03-13T00:49:46;100475.84;;;8.34;100.00
36726;BME280;44936;52.086;5.150;2023-03-13T00:52:12;100455.69;;;8.20;100.00
36726;BME280;44936;52.086;5.150;2023-03-13T00:54:37;100455.84;;;8.39;100.00
36726;BME280;44936;52.086;5.150;2023-03-13T00:57:03;100425.25;;;8.24;100.00
36726;BME280;44936;52.086;5.150;2023-03-13T00:59:28;100430.53;;;8.32;100.00
36726;BME280;44936;52.086;5.150;2023-03-13T01:01:54;100404.47;;;8.39;100.00
36726;BME280;44936;52.086;5.150;2023-03-13T01:04:19;100379.16;;;8.31;100.00
36726;BME280;44936;52.086;5.150;2023-03-13T01:06:44;100380.09;;;8.40;100.00
36726;BME280;44936;52.086;5.150;2023-03-13T01:09:13;100381.88;;;8.49;100.00
36726;BME280;44936;52.086;5.150;2023-03-13T01:11:40;100378.34;;;8.47;100.00
36726;BME280;44936;52.086;5.150;2023-03-13T01:14:08;100383.63;;;8.55;100.00
36726;BME280;44936;52.086;5.150;2023-03-13T01:16:35;100363.56;;;8.54;100.00
36726;BME280;44936;52.086;5.150;2023-03-13T01:19:04;100354.91;;;8.58;100.00
36726;BME280;44936;52.086;5.150;2023-03-13T01:21:30;100360.97;;;8.55;100.00
36726;BME280;44936;52.086;5.150;2023-03-13T01:23:56;100367.09;;;8.59;100.00
36726;BME280;44936;52.086;5.150;2023-03-13T01:26:23;100354.03;;;8.65;100.00
36726;BME280;44936;52.086;5.150;2023-03-13T01:28:49;100334.00;;;8.68;100.00
36726;BME280;44936;52.086;5.150;2023-03-13T01:31:26;100321.81;;;8.67;100.00
36726;BME280;44936;52.086;5.150;2023-03-13T01:33:57;100312.22;;;8.68;100.00
36726;BME280;44936;52.086;5.150;2023-03-13T01:36:24;100295.66;;;8.70;100.00
36726;BME280;44936;52.086;5.150;2023-03-13T01:38:53;100292.16;;;8.74;100.00
36726;BME280;44936;52.086;5.150;2023-03-13T01:41:20;100281.72;;;8.73;100.00
36726;BME280;44936;52.086;5.150;2023-03-13T01:43:46;100272.13;;;8.79;100.00
36726;BME280;44936;52.086;5.150;2023-03-13T01:46:23;100273.88;;;8.88;100.00
36726;BME280;44936;52.086;5.150;2023-03-13T01:54:11;100248.59;;;8.81;100.00
36726;BME280;44936;52.086;5.150;2023-03-13T01:56:44;100246.00;;;8.89;100.00
36726;BME280;44936;52.086;5.150;2023-03-13T01:59:14;100252.97;;;8.99;100.00
36726;BME280;44936;52.086;5.150;2023-03-13T02:01:43;100238.13;;;8.99;100.00
36726;BME280;44936;52.086;5.150;2023-03-13T02:04:10;100206.78;;;8.86;100.00
36726;BME280;44936;52.086;5.150;2023-03-13T02:06:39;100205.91;;;8.93;100.00
36726;BME280;44936;52.086;5.150;2023-03-13T02:09:11;100205.03;;;9.03;100.00
36726;BME280;44936;52.086;5.150;2023-03-13T02:12:09;100195.41;;;9.08;100.00
36726;BME280;44936;52.086;5.150;2023-03-13T02:14:37;100181.47;;;9.11;100.00
36726;BME280;44936;52.086;5.150;2023-03-13T02:17:06;100179.75;;;9.02;100.00
36726;BME280;44936;52.086;5.150;2023-03-13T02:19:45;100173.63;;;9.12;100.00
36726;BME280;44936;52.086;5.150;2023-03-13T02:27:18;100166.63;;;9.13;100.00
36726;BME280;44936;52.086;5.150;2023-03-13T02:29:44;100151.78;;;9.25;100.00
36726;BME280;44936;52.086;5.150;2023-03-13T02:32:10;100138.69;;;9.25;100.00
36726;BME280;44936;52.086;5.150;2023-03-13T02:34:38;100156.13;;;9.19;100.00
36726;BME280;44936;52.086;5.150;2023-03-13T02:37:05;100151.78;;;9.22;100.00
36726;BME280;44936;52.086;5.150;2023-03-13T02:39:36;100171.84;;;9.29;100.00
36726;BME280;44936;52.086;5.150;2023-03-13T02:42:02;100145.59;;;9.45;100.00
36726;BME280;44936;52.086;5.150;2023-03-13T02:44:28;100129.91;;;9.43;100.00
36726;BME280;44936;52.086;5.150;2023-03-13T02:46:53;100123.75;;;9.53;100.00
36726;BME280;44936;52.086;5.150;2023-03-13T02:49:27;100113.31;;;9.50;100.00
36726;BME280;44936;52.086;5.150;2023-03-13T02:51:55;100108.97;;;9.48;100.00
36726;BME280;44936;52.086;5.150;2023-03-13T02:54:24;100126.31;;;9.67;100.00
36726;BME280;44936;52.086;5.150;2023-03-13T02:56:54;100118.44;;;9.73;100.00
36726;BME280;44936;52.086;5.150;2023-03-13T02:59:21;100119.25;;;9.86;100.00
36726;BME280;44936;52.086;5.150;2023-03-13T03:01:46;100121.88;;;9.83;100.00
36726;BME280;44936;52.086;5.150;2023-03-13T03:04:11;100106.13;;;9.86;100.00
36726;BME280;44936;52.086;5.150;2023-03-13T03:06:37;100120.88;;;10.08;100.00
36726;BME280;44936;52.086;5.150;2023-03-13T03:09:03;100089.34;;;10.25;100.00
36726;BME280;44936;52.086;5.150;2023-03-13T03:11:28;100086.63;;;10.34;100.00
36726;BME280;44936;52.086;5.150;2023-03-13T03:13:53;100097.97;;;10.36;100.00
36726;BME280;44936;52.086;5.150;2023-03-13T03:16:19;100078.06;;;10.09;100.00
36726;BME280;44936;52.086;5.150;2023-03-13T03:18:45;100093.66;;;10.29;100.00
36726;BME280;44936;52.086;5.150;2023-03-13T03:21:10;100077.00;;;10.36;100.00
36726;BME280;44936;52.086;5.150;2023-03-13T03:23:35;100069.09;;;10.42;100.00
36726;BME280;44936;52.086;5.150;2023-03-13T03:26:02;100076.94;;;10.44;100.00
36726;BME280;44936;52.086;5.150;2023-03-13T03:28:28;100070.78;;;10.46;100.00
36726;BME280;44936;52.086;5.150;2023-03-13T03:30:53;100085.50;;;10.60;100.00
36726;BME280;44936;52.086;5.150;2023-03-13T03:33:20;100092.56;;;10.55;100.00
36726;BME280;44936;52.086;5.150;2023-03-13T03:35:49;100120.56;;;10.53;100.00
36726;BME280;44936;52.086;5.150;2023-03-13T03:38:15;100103.94;;;10.50;100.00
36726;BME280;44936;52.086;5.150;2023-03-13T03:40:41;100112.69;;;10.54;100.00
36726;BME280;44936;52.086;5.150;2023-03-13T03:43:06;100116.03;;;10.68;100.00
36726;BME280;44936;52.086;5.150;2023-03-13T03:45:31;100129.31;;;10.53;100.00
36726;BME280;44936;52.086;5.150;2023-03-13T03:47:57;100140.69;;;10.47;100.00
36726;BME280;44936;52.086;5.150;2023-03-13T03:50:26;100163.34;;;10.56;100.00
36726;BME280;44936;52.086;5.150;2023-03-13T03:52:51;100155.47;;;10.61;100.00
36726;BME280;44936;52.086;5.150;2023-03-13T03:55:18;100134.31;;;10.79;100.00
36726;BME280;44936;52.086;5.150;2023-03-13T03:57:43;100134.53;;;10.50;100.00
36726;BME280;44936;52.086;5.150;2023-03-13T04:00:09;100130.03;;;10.67;100.00
36726;BME280;44936;52.086;5.150;2023-03-13T04:02:36;100134.50;;;10.58;100.00
36726;BME280;44936;52.086;5.150;2023-03-13T04:05:01;100120.44;;;10.65;100.00
36726;BME280;44936;52.086;5.150;2023-03-13T04:07:27;100129.91;;;10.81;100.00
36726;BME280;44936;52.086;5.150;2023-03-13T04:09:52;100115.16;;;10.71;100.00
36726;BME280;44936;52.086;5.150;2023-03-13T04:12:17;100113.28;;;10.82;100.00
36726;BME280;44936;52.086;5.150;2023-03-13T04:14:43;100101.97;;;10.78;100.00
36726;BME280;44936;52.086;5.150;2023-03-13T04:17:08;100120.44;;;10.65;100.00
36726;BME280;44936;52.086;5.150;2023-03-13T04:19:33;100132.50;;;10.84;100.00
36726;BME280;44936;52.086;5.150;2023-03-13T04:21:58;100113.28;;;10.82;100.00
36726;BME280;44936;52.086;5.150;2023-03-13T04:24:24;100115.00;;;10.86;100.00
36726;BME280;44936;52.086;5.150;2023-03-13T04:26:49;100109.72;;;10.89;100.00
36726;BME280;44936;52.086;5.150;2023-03-13T04:29:14;100119.25;;;10.98;100.00
36726;BME280;44936;52.086;5.150;2023-03-13T04:31:40;100122.00;;;10.84;100.00
36726;BME280;44936;52.086;5.150;2023-03-13T04:34:05;100113.16;;;10.97;100.00
36726;BME280;44936;52.086;5.150;2023-03-13T04:36:30;100114.84;;;11.01;100.00
36726;BME280;44936;52.086;5.150;2023-03-13T04:38:55;100089.63;;;10.88;100.00
36726;BME280;44936;52.086;5.150;2023-03-13T04:41:21;100103.53;;;10.95;100.00
36726;BME280;44936;52.086;5.150;2023-03-13T04:43:46;100119.19;;;11.04;100.00
36726;BME280;44936;52.086;5.150;2023-03-13T04:46:11;100118.50;;;10.88;100.00
36726;BME280;44936;52.086;5.150;2023-03-13T04:48:37;100132.53;;;10.83;100.00
36726;BME280;44936;52.086;5.150;2023-03-13T04:51:02;100128.03;;;10.94;100.00
36726;BME280;44936;52.086;5.150;2023-03-13T04:53:27;100129.78;;;10.95;100.00
36726;BME280;44936;52.086;5.150;2023-03-13T04:55:53;100120.94;;;11.06;100.00
36726;BME280;44936;52.086;5.150;2023-03-13T04:58:18;100100.84;;;11.02;100.00
36726;BME280;44936;52.086;5.150;2023-03-13T05:00:44;100127.03;;;11.09;100.00
36726;BME280;44936;52.086;5.150;2023-03-13T05:03:09;100111.22;;;11.15;100.00
36726;BME280;44936;52.086;5.150;2023-03-13T05:05:34;100113.75;;;11.21;100.00
36726;BME280;44936;52.086;5.150;2023-03-13T05:08:00;100109.44;;;11.17;100.00
36726;BME280;44936;52.086;5.150;2023-03-13T05:10:26;100129.53;;;11.18;100.00
36726;BME280;44936;52.086;5.150;2023-03-13T05:12:51;100132.97;;;11.26;100.00
36726;BME280;44936;52.086;5.150;2023-03-13T05:15:16;100147.66;;;11.39;100.00
36726;BME280;44936;52.086;5.150;2023-03-13T05:17:42;100133.81;;;11.26;100.00
36726;BME280;44936;52.086;5.150;2023-03-13T05:20:08;100159.16;;;11.32;100.00
36726;BME280;44936;52.086;5.150;2023-03-13T05:22:36;100174.81;;;11.41;100.00
36726;BME280;44936;52.086;5.150;2023-03-13T05:25:01;100172.09;;;11.47;100.00
36726;BME280;44936;52.086;5.150;2023-03-13T05:27:26;100155.56;;;11.38;100.00
36726;BME280;44936;52.086;5.150;2023-03-13T05:29:51;100174.81;;;11.41;100.00
36726;BME280;44936;52.086;5.150;2023-03-13T05:32:17;100209.84;;;11.40;100.00
36726;BME280;44936;52.086;5.150;2023-03-13T05:34:42;100180.84;;;11.46;100.00
36726;BME280;44936;52.086;5.150;2023-03-13T05:37:07;100183.56;;;11.42;100.00
36726;BME280;44936;52.086;5.150;2023-03-13T05:39:33;100212.41;;;11.45;100.00
36726;BME280;44936;52.086;5.150;2023-03-13T05:41:58;100199.25;;;11.46;100.00
36726;BME280;44936;52.086;5.150;2023-03-13T05:44:23;100242.16;;;11.45;100.00
36726;BME280;44936;52.086;5.150;2023-03-13T05:46:49;100189.66;;;11.42;100.00
36726;BME280;44936;52.086;5.150;2023-03-13T05:49:14;100219.44;;;11.41;100.00
36726;BME280;44936;52.086;5.150;2023-03-13T05:51:39;100207.19;;;11.40;100.00
36726;BME280;44936;52.086;5.150;2023-03-13T05:54:05;100222.81;;;11.52;100.00
36726;BME280;44936;52.086;5.150;2023-03-13T05:56:30;100231.66;;;11.44;100.00
36726;BME280;44936;52.086;5.150;2023-03-13T05:58:55;100191.34;;;11.48;100.00
36726;BME280;44936;52.086;5.150;2023-03-13T06:01:21;100213.34;;;11.38;100.00
36726;BME280;44936;52.086;5.150;2023-03-13T06:03:49;100208.00;;;11.45;100.00
36726;BME280;44936;52.086;5.150;2023-03-13T06:06:14;100207.19;;;11.39;100.00
36726;BME280;44936;52.086;5.150;2023-03-13T06:08:40;100214.97;;;11.49;100.00
36726;BME280;44936;52.086;5.150;2023-03-13T06:11:05;100197.56;;;11.42;100.00
36726;BME280;44936;52.086;5.150;2023-03-13T06:13:30;100173.09;;;11.37;100.00
36726;BME280;44936;52.086;5.150;2023-03-13T06:15:56;100190.59;;;11.37;100.00
36726;BME280;44936;52.086;5.150;2023-03-13T06:18:23;100176.69;;;11.28;100.00
36726;BME280;44936;52.086;5.150;2023-03-13T06:20:49;100202.03;;;11.32;100.00
36726;BME280;44936;52.086;5.150;2023-03-13T06:23:19;100172.19;;;11.38;100.00
36726;BME280;44936;52.086;5.150;2023-03-13T06:25:48;100182.78;;;11.30;100.00
36726;BME280;44936;52.086;5.150;2023-03-13T06:28:13;100195.78;;;11.43;100.00
36726;BME280;44936;52.086;5.150;2023-03-13T06:30:38;100179.31;;;11.27;100.00
36726;BME280;44936;52.086;5.150;2023-03-13T06:33:04;100173.16;;;11.32;100.00
36726;BME280;44936;52.086;5.150;2023-03-13T06:35:29;100171.22;;;11.47;100.00
36726;BME280;44936;52.086;5.150;2023-03-13T06:37:54;100187.84;;;11.50;100.00
36726;BME280;44936;52.086;5.150;2023-03-13T06:40:20;100196.50;;;11.58;100.00
36726;BME280;44936;52.086;5.150;2023-03-13T06:42:45;100190.38;;;11.56;100.00
36726;BME280;44936;52.086;5.150;2023-03-13T06:45:10;100207.88;;;11.59;100.00
36726;BME280;44936;52.086;5.150;2023-03-13T06:47:36;100199.94;;;11.63;100.00
36726;BME280;44936;52.086;5.150;2023-03-13T06:50:01;100203.41;;;11.66;100.00
36726;BME280;44936;52.086;5.150;2023-03-13T06:52:26;100198.13;;;11.69;100.00
36726;BME280;44936;52.086;5.150;2023-03-13T06:54:52;100206.97;;;11.61;100.00
36726;BME280;44936;52.086;5.150;2023-03-13T06:57:17;100192.88;;;11.69;100.00
36726;BME280;44936;52.086;5.150;2023-03-13T06:59:42;100213.91;;;11.66;100.00
36726;BME280;44936;52.086;5.150;2023-03-13T07:02:10;100192.09;;;11.60;100.00
36726;BME280;44936;52.086;5.150;2023-03-13T07:04:35;100184.22;;;11.60;100.00
36726;BME280;44936;52.086;5.150;2023-03-13T07:07:00;100182.47;;;11.59;100.00
36726;BME280;44936;52.086;5.150;2023-03-13T07:09:26;100157.34;;;11.35;100.00
36726;BME280;44936;52.086;5.150;2023-03-13T07:11:51;100136.50;;;11.22;100.00
36726;BME280;44936;52.086;5.150;2023-03-13T07:14:17;100150.31;;;11.38;100.00
36726;BME280;44936;52.086;5.150;2023-03-13T07:16:43;100119.88;;;11.21;100.00
36726;BME280;44936;52.086;5.150;2023-03-13T07:19:09;100116.22;;;11.36;100.00
36726;BME280;44936;52.086;5.150;2023-03-13T07:21:34;100098.72;;;11.35;100.00
36726;BME280;44936;52.086;5.150;2023-03-13T07:24:00;100097.03;;;11.29;100.00
36726;BME280;44936;52.086;5.150;2023-03-13T07:26:25;100111.91;;;11.29;100.00
36726;BME280;44936;52.086;5.150;2023-03-13T07:28:50;100090.91;;;11.29;100.00
36726;BME280;44936;52.086;5.150;2023-03-13T07:31:20;100085.66;;;11.29;100.00
36726;BME280;44936;52.086;5.150;2023-03-13T07:33:45;100081.31;;;11.28;100.00
36726;BME280;44936;52.086;5.150;2023-03-13T07:36:13;100077.09;;;11.15;100.00
36726;BME280;44936;52.086;5.150;2023-03-13T07:38:39;100080.38;;;11.30;100.00
36726;BME280;44936;52.086;5.150;2023-03-13T07:41:05;100062.16;;;11.18;100.00
36726;BME280;44936;52.086;5.150;2023-03-13T07:43:30;100064.75;;;11.21;100.00
36726;BME280;44936;52.086;5.150;2023-03-13T07:45:59;100062.09;;;11.26;100.00
36726;BME280;44936;52.086;5.150;2023-03-13T07:48:28;100094.56;;;11.17;100.00
36726;BME280;44936;52.086;5.150;2023-03-13T07:50:54;100064.84;;;11.12;100.00
36726;BME280;44936;52.086;5.150;2023-03-13T07:53:19;100080.78;;;10.97;100.00
36726;BME280;44936;52.086;5.150;2023-03-13T07:56:12;100073.50;;;11.22;100.00
36726;BME280;44936;52.086;5.150;2023-03-13T07:58:38;100087.41;;;11.28;100.00
36726;BME280;44936;52.086;5.150;2023-03-13T08:01:13;100068.03;;;11.40;100.00
36726;BME280;44936;52.086;5.150;2023-03-13T08:03:38;100058.41;;;11.39;100.00
36726;BME280;44936;52.086;5.150;2023-03-13T08:06:14;100090.81;;;11.37;100.00
36726;BME280;44936;52.086;5.150;2023-03-13T08:08:41;100110.88;;;11.44;100.00
36726;BME280;44936;52.086;5.150;2023-03-13T08:11:08;100085.56;;;11.40;100.00
36726;BME280;44936;52.086;5.150;2023-03-13T08:13:34;100108.19;;;11.47;100.00
36726;BME280;44936;52.086;5.150;2023-03-13T08:16:12;100106.44;;;11.47;100.00
36726;BME280;44936;52.086;5.150;2023-03-13T08:18:40;100100.25;;;11.53;100.00
36726;BME280;44936;52.086;5.150;2023-03-13T08:21:11;100084.44;;;11.57;100.00
36726;BME280;44936;52.086;5.150;2023-03-13T08:23:37;100083.59;;;11.54;100.00
36726;BME280;44936;52.086;5.150;2023-03-13T08:26:07;100078.41;;;11.51;100.00
36726;BME280;44936;52.086;5.150;2023-03-13T08:28:34;100070.50;;;11.52;100.00
36726;BME280;44936;52.086;5.150;2023-03-13T08:31:17;100094.97;;;11.57;100.00
36726;BME280;44936;52.086;5.150;2023-03-13T08:33:44;100080.09;;;11.55;100.00
36726;BME280;44936;52.086;5.150;2023-03-13T08:36:21;100033.72;;;11.52;100.00
36726;BME280;44936;52.086;5.150;2023-03-13T08:38:48;100041.75;;;11.42;100.00
36726;BME280;44936;52.086;5.150;2023-03-13T08:41:17;100035.47;;;11.53;100.00
36726;BME280;44936;52.086;5.150;2023-03-13T08:43:42;100058.13;;;11.60;100.00
36726;BME280;44936;52.086;5.150;2023-03-13T08:46:08;100033.72;;;11.52;100.00
36726;BME280;44936;52.086;5.150;2023-03-13T08:48:33;100055.06;;;11.28;100.00
36726;BME280;44936;52.086;5.150;2023-03-13T08:51:03;100072.16;;;11.59;100.00
36726;BME280;44936;52.086;5.150;2023-03-13T08:53:29;100077.31;;;11.67;100.00
36726;BME280;44936;52.086;5.150;2023-03-13T08:55:55;100079.03;;;11.70;100.00
36726;BME280;44936;52.086;5.150;2023-03-13T08:58:21;100085.13;;;11.72;100.00
36726;BME280;44936;52.086;5.150;2023-03-13T09:00:46;100098.22;;;11.73;100.00
36726;BME280;44936;52.086;5.150;2023-03-13T09:03:11;100104.47;;;11.66;100.00
36726;BME280;44936;52.086;5.150;2023-03-13T09:05:37;100103.41;;;11.81;100.00
36726;BME280;44936;52.086;5.150;2023-03-13T09:08:03;100092.06;;;11.74;100.00
36726;BME280;44936;52.086;5.150;2023-03-13T09:10:28;100111.28;;;11.84;100.00
36726;BME280;44936;52.086;5.150;2023-03-13T09:12:54;100090.13;;;11.93;100.00
36726;BME280;44936;52.086;5.150;2023-03-13T09:15:19;100089.94;;;12.05;100.00
36726;BME280;44936;52.086;5.150;2023-03-13T09:17:44;100094.28;;;12.06;100.00
36726;BME280;44936;52.086;5.150;2023-03-13T09:20:10;100086.38;;;12.08;100.00
36726;BME280;44936;52.086;5.150;2023-03-13T09:22:35;100101.84;;;12.28;100.00
36726;BME280;44936;52.086;5.150;2023-03-13T09:25:00;100110.72;;;12.21;100.00
36726;BME280;44936;52.086;5.150;2023-03-13T09:27:26;100108.03;;;12.24;100.00
36726;BME280;44936;52.086;5.150;2023-03-13T09:29:52;100114.75;;;12.43;100.00
36726;BME280;44936;52.086;5.150;2023-03-13T09:32:18;100092.06;;;12.37;100.00
36726;BME280;44936;52.086;5.150;2023-03-13T09:34:44;100079.97;;;12.76;100.00
36726;BME280;44936;52.086;5.150;2023-03-13T09:37:10;100086.69;;;12.93;100.00
36726;BME280;44936;52.086;5.150;2023-03-13T09:39:35;100084.00;;;12.96;100.00
36726;BME280;44936;52.086;5.150;2023-03-13T09:42:03;100112.06;;;12.97;100.00
36726;BME280;44936;52.086;5.150;2023-03-13T09:44:45;100071.31;;;13.18;100.00
36726;BME280;44936;52.086;5.150;2023-03-13T09:47:26;100060.53;;;13.30;100.00
36726;BME280;44936;52.086;5.150;2023-03-13T09:50:03;100055.69;;;13.07;100.00
36726;BME280;44936;52.086;5.150;2023-03-13T09:52:34;100047.50;;;13.24;100.00
36726;BME280;44936;52.086;5.150;2023-03-13T09:57:48;100038.84;;;13.17;100.00
36726;BME280;44936;52.086;5.150;2023-03-13T10:00:23;100035.34;;;13.17;100.00
36726;BME280;44936;52.086;5.150;2023-03-13T10:02:59;100030.78;;;13.25;100.00
36726;BME280;44936;52.086;5.150;2023-03-13T10:05:28;99990.94;;;13.42;100.00
36726;BME280;44936;52.086;5.150;2023-03-13T10:08:07;99976.56;;;13.56;100.00
36726;BME280;44936;52.086;5.150;2023-03-13T10:13:30;99995.31;;;13.81;100.00
36726;BME280;44936;52.086;5.150;2023-03-13T10:16:06;99972.84;;;13.65;100.00
36726;BME280;44936;52.086;5.150;2023-03-13T10:18:33;99952.72;;;13.98;100.00
36726;BME280;44936;52.086;5.150;2023-03-13T10:21:09;99938.78;;;13.93;100.00
36726;BME280;44936;52.086;5.150;2023-03-13T10:23:47;99949.25;;;13.96;100.00
36726;BME280;44936;52.086;5.150;2023-03-13T10:26:21;99963.84;;;14.09;100.00
36726;BME280;44936;52.086;5.150;2023-03-13T10:28:49;99946.97;;;14.16;100.00
36726;BME280;44936;52.086;5.150;2023-03-13T10:31:41;99936.56;;;14.10;100.00
36726;BME280;44936;52.086;5.150;2023-03-13T10:34:13;99911.44;;;13.96;100.00
36726;BME280;44936;52.086;5.150;2023-03-13T10:36:43;99897.41;;;13.97;100.00
36726;BME280;44936;52.086;5.150;2023-03-13T10:39:17;99880.13;;;14.17;100.00
36726;BME280;44936;52.086;5.150;2023-03-13T10:41:44;99906.19;;;13.96;100.00
36726;BME280;44936;52.086;5.150;2023-03-13T10:44:21;99859.56;;;13.98;100.00
36726;BME280;44936;52.086;5.150;2023-03-13T10:46:48;99865.63;;;14.01;100.00
36726;BME280;44936;52.086;5.150;2023-03-13T10:49:16;99873.34;;;14.09;100.00
36726;BME280;44936;52.086;5.150;2023-03-13T10:51:46;99888.38;;;14.05;100.00
36726;BME280;44936;52.086;5.150;2023-03-13T10:54:26;99921.13;;;13.97;100.00
36726;BME280;44936;52.086;5.150;2023-03-13T10:59:51;99908.28;;;14.17;100.00
36726;BME280;44936;52.086;5.150;2023-03-13T11:04:48;99856.66;;;14.39;100.00
36726;BME280;44936;52.086;5.150;2023-03-13T11:07:26;99864.31;;;14.17;100.00
36726;BME280;44936;52.086;5.150;2023-03-13T11:12:25;99810.97;;;13.75;100.00
36726;BME280;44936;52.086;5.150;2023-03-13T11:14:58;99838.16;;;14.10;100.00
36726;BME280;44936;52.086;5.150;2023-03-13T11:17:38;99825.63;;;14.18;100.00
36726;BME280;44936;52.086;5.150;2023-03-13T11:23:26;99808.72;;;14.25;100.00
36726;BME280;44936;52.086;5.150;2023-03-13T11:25:42;99809.88;;;14.46;100.00
36726;BME280;44936;52.086;5.150;2023-03-13T11:33:45;99789.25;;;14.60;100.00
36726;BME280;44936;52.086;5.150;2023-03-13T11:47:41;99779.97;;;14.77;100.00
36726;BME280;44936;52.086;5.150;2023-03-13T11:58:23;99763.66;;;14.90;100.00
36726;BME280;44936;52.086;5.150;2023-03-13T12:00:58;99734.91;;;14.81;100.00
36726;BME280;44936;52.086;5.150;2023-03-13T12:03:35;99784.19;;;14.53;100.00
36726;BME280;44936;52.086;5.150;2023-03-13T12:06:03;99789.94;;;14.67;100.00
36726;BME280;44936;52.086;5.150;2023-03-13T12:08:36;99781.19;;;14.65;100.00
36726;BME280;44936;52.086;5.150;2023-03-13T12:11:26;99790.47;;;14.49;100.00
36726;BME280;44936;52.086;5.150;2023-03-13T12:14:17;99797.69;;;14.42;100.00
36726;BME280;44936;52.086;5.150;2023-03-13T12:17:08;99793.16;;;14.16;100.00
36726;BME280;44936;52.086;5.150;2023-03-13T12:22:37;99779.38;;;14.06;100.00
36726;BME280;44936;52.086;5.150;2023-03-13T12:25:12;99772.31;;;14.07;100.00
36726;BME280;44936;52.086;5.150;2023-03-13T12:27:44;99779.56;;;13.99;100.00
36726;BME280;44936;52.086;5.150;2023-03-13T12:30:18;99757.22;;;14.12;100.00
36726;BME280;44936;52.086;5.150;2023-03-13T12:35:25;99702.84;;;14.37;100.00
36726;BME280;44936;52.086;5.150;2023-03-13T12:38:01;99733.19;;;14.23;100.00
36726;BME280;44936;52.086;5.150;2023-03-13T12:43:23;99700.91;;;14.14;100.00
36726;BME280;44936;52.086;5.150;2023-03-13T12:57:03;99719.78;;;14.60;100.00
36726;BME280;44936;52.086;5.150;2023-03-13T12:59:35;99678.25;;;14.65;100.00
36726;BME280;44936;52.086;5.150;2023-03-13T13:02:16;99675.34;;;14.44;100.00
36726;BME280;44936;52.086;5.150;2023-03-13T13:04:45;99678.09;;;14.41;100.00
36726;BME280;44936;52.086;5.150;2023-03-13T13:07:43;99681.25;;;14.25;100.00
36726;BME280;44936;52.086;5.150;2023-03-13T13:12:39;99703.91;;;14.32;100.00
36726;BME280;44936;52.086;5.150;2023-03-13T13:15:18;99678.47;;;14.29;100.00
36726;BME280;44936;52.086;5.150;2023-03-13T13:17:46;99669.22;;;14.16;100.00
36726;BME280;44936;52.086;5.150;2023-03-13T13:20:38;99676.06;;;14.22;100.00
36726;BME280;44936;52.086;5.150;2023-03-13T13:23:21;99619.63;;;14.27;100.00
36726;BME280;44936;52.086;5.150;2023-03-13T13:25:47;99629.88;;;14.36;100.00
36726;BME280;44936;52.086;5.150;2023-03-13T13:30:49;99648.47;;;14.33;100.00
36726;BME280;44936;52.086;5.150;2023-03-13T13:38:39;99648.44;;;14.05;100.00
36726;BME280;44936;52.086;5.150;2023-03-13T13:43:45;99622.75;;;13.82;100.00
36726;BME280;44936;52.086;5.150;2023-03-13T13:46:24;99609.88;;;14.01;100.00
36726;BME280;44936;52.086;5.150;2023-03-13T13:51:37;99644.97;;;14.03;100.00
36726;BME280;44936;52.086;5.150;2023-03-13T13:56:59;99625.22;;;13.88;100.00
36726;BME280;44936;52.086;5.150;2023-03-13T13:59:40;99633.91;;;13.92;100.00
36726;BME280;44936;52.086;5.150;2023-03-13T14:04:35;99661.44;;;13.82;100.00
36726;BME280;44936;52.086;5.150;2023-03-13T14:07:03;99619.13;;;13.86;100.00
36726;BME280;44936;52.086;5.150;2023-03-13T14:15:10;99646.47;;;13.82;100.00
36726;BME280;44936;52.086;5.150;2023-03-13T14:17:38;99624.25;;;13.91;100.00
36726;BME280;44936;52.086;5.150;2023-03-13T14:20:14;99631.44;;;13.86;100.00
36726;BME280;44936;52.086;5.150;2023-03-13T14:22:44;99598.44;;;14.02;100.00
36726;BME280;44936;52.086;5.150;2023-03-13T14:25:10;99594.47;;;13.89;100.00
36726;BME280;44936;52.086;5.150;2023-03-13T14:27:42;99614.75;;;13.85;100.00
36726;BME280;44936;52.086;5.150;2023-03-13T14:30:08;99581.50;;;13.81;100.00
36726;BME280;44936;52.086;5.150;2023-03-13T14:32:34;99600.75;;;13.83;100.00